sensor_id;sensor_type;location;lat;lon;timestamp;temperature;humidity
18229;DHT22;9239;50.932;3.142;2023-09-30T00:00:01;13.70;99.90
18229;DHT22;9239;50.932;3.142;2023-09-30T00:02:30;13.70;99.90
18229;DHT22;9239;50.932;3.142;2023-09-30T00:04:57;13.70;99.90
18229;DHT22;9239;50.932;3.142;2023-09-30T00:07:24;13.70;99.90
18229;DHT22;9239;50.932;3.142;2023-09-30T00:09:53;13.70;99.90
18229;DHT22;9239;50.932;3.142;2023-09-30T00:12:22;13.70;99.90
18229;DHT22;9239;50.932;3.142;2023-09-30T00:14:49;13.60;99.90
18229;DHT22;9239;50.932;3.142;2023-09-30T00:17:15;13.60;99.90
18229;DHT22;9239;50.932;3.142;2023-09-30T00:19:42;13.60;99.90
18229;DHT22;9239;50.932;3.142;2023-09-30T00:22:10;13.50;99.90
18229;DHT22;9239;50.932;3.142;2023-09-30T00:24:37;13.50;99.90
18229;DHT22;9239;50.932;3.142;2023-09-30T00:27:05;13.50;99.90
18229;DHT22;9239;50.932;3.142;2023-09-30T00:29:33;13.50;99.90
18229;DHT22;9239;50.932;3.142;2023-09-30T00:32:01;13.50;99.90
18229;DHT22;9239;50.932;3.142;2023-09-30T00:34:28;13.40;99.90
18229;DHT22;9239;50.932;3.142;2023-09-30T00:36:58;13.40;99.90
18229;DHT22;9239;50.932;3.142;2023-09-30T00:39:27;13.40;99.90
18229;DHT22;9239;50.932;3.142;2023-09-30T00:41:56;13.30;99.90
18229;DHT22;9239;50.932;3.142;2023-09-30T00:44:26;13.30;99.90
18229;DHT22;9239;50.932;3.142;2023-09-30T00:46:54;13.30;99.90
18229;DHT22;9239;50.932;3.142;2023-09-30T00:49:22;13.30;99.90
18229;DHT22;9239;50.932;3.142;2023-09-30T00:51:50;13.30;99.90
18229;DHT22;9239;50.932;3.142;2023-09-30T00:54:17;13.30;99.90
18229;DHT22;9239;50.932;3.142;2023-09-30T00:56:45;13.30;99.90
18229;DHT22;9239;50.932;3.142;2023-09-30T00:59:13;13.30;99.90
18229;DHT22;9239;50.932;3.142;2023-09-30T01:01:42;13.30;99.90
18229;DHT22;9239;50.932;3.142;2023-09-30T01:04:11;13.30;99.90
18229;DHT22;9239;50.932;3.142;2023-09-30T01:06:38;13.30;99.90
18229;DHT22;9239;50.932;3.142;2023-09-30T01:09:04;13.30;99.90
18229;DHT22;9239;50.932;3.142;2023-09-30T01:11:31;13.20;99.90
18229;DHT22;9239;50.932;3.142;2023-09-30T01:13:58;13.20;99.90
18229;DHT22;9239;50.932;3.142;2023-09-30T01:16:25;13.20;99.90
18229;DHT22;9239;50.932;3.142;2023-09-30T01:18:53;13.30;99.90
18229;DHT22;9239;50.932;3.142;2023-09-30T01:21:20;13.20;99.90
18229;DHT22;9239;50.932;3.142;2023-09-30T01:23:49;13.20;99.90
18229;DHT22;9239;50.932;3.142;2023-09-30T01:26:17;13.20;99.90
18229;DHT22;9239;50.932;3.142;2023-09-30T01:28:44;13.10;99.90
18229;DHT22;9239;50.932;3.142;2023-09-30T01:31:14;13.10;99.90
18229;DHT22;9239;50.932;3.142;2023-09-30T01:33:41;13.10;99.90
18229;DHT22;9239;50.932;3.142;2023-09-30T01:36:08;13.10;99.90
18229;DHT22;9239;50.932;3.142;2023-09-30T01:38:35;13.10;99.90
18229;DHT22;9239;50.932;3.142;2023-09-30T01:41:03;13.10;99.90
18229;DHT22;9239;50.932;3.142;2023-09-30T01:43:30;13.10;99.90
18229;DHT22;9239;50.932;3.142;2023-09-30T01:45:57;13.10;99.90
18229;DHT22;9239;50.932;3.142;2023-09-30T01:48:24;13.10;99.90
18229;DHT22;9239;50.932;3.142;2023-09-30T01:50:51;13.00;99.90
18229;DHT22;9239;50.932;3.142;2023-09-30T01:53:18;13.00;99.90
18229;DHT22;9239;50.932;3.142;2023-09-30T01:55:45;13.00;99.90
18229;DHT22;9239;50.932;3.142;2023-09-30T01:58:14;12.90;99.90
18229;DHT22;9239;50.932;3.142;2023-09-30T02:00:41;12.90;99.90
18229;DHT22;9239;50.932;3.142;2023-09-30T02:03:08;12.90;99.90
18229;DHT22;9239;50.932;3.142;2023-09-30T02:05:36;12.90;99.90
18229;DHT22;9239;50.932;3.142;2023-09-30T02:08:04;12.80;99.90
18229;DHT22;9239;50.932;3.142;2023-09-30T02:10:31;12.90;99.90
18229;DHT22;9239;50.932;3.142;2023-09-30T02:12:59;12.80;99.90
18229;DHT22;9239;50.932;3.142;2023-09-30T02:15:27;12.80;99.90
18229;DHT22;9239;50.932;3.142;2023-09-30T02:17:54;12.70;99.90
18229;DHT22;9239;50.932;3.142;2023-09-30T02:20:21;12.70;99.90
18229;DHT22;9239;50.932;3.142;2023-09-30T02:22:51;12.70;99.90
18229;DHT22;9239;50.932;3.142;2023-09-30T02:25:20;12.70;99.90
18229;DHT22;9239;50.932;3.142;2023-09-30T02:27:49;12.70;99.90
18229;DHT22;9239;50.932;3.142;2023-09-30T02:30:16;12.70;99.90
18229;DHT22;9239;50.932;3.142;2023-09-30T02:32:44;12.70;99.90
18229;DHT22;9239;50.932;3.142;2023-09-30T02:35:12;12.70;99.90
18229;DHT22;9239;50.932;3.142;2023-09-30T02:37:41;12.70;99.90
18229;DHT22;9239;50.932;3.142;2023-09-30T02:40:08;12.70;99.90
18229;DHT22;9239;50.932;3.142;2023-09-30T02:42:36;12.70;99.90
18229;DHT22;9239;50.932;3.142;2023-09-30T02:45:04;12.70;99.90
18229;DHT22;9239;50.932;3.142;2023-09-30T02:47:31;12.70;99.90
18229;DHT22;9239;50.932;3.142;2023-09-30T02:50:00;12.70;99.90
18229;DHT22;9239;50.932;3.142;2023-09-30T02:52:27;12.70;99.90
18229;DHT22;9239;50.932;3.142;2023-09-30T02:54:54;12.70;99.90
18229;DHT22;9239;50.932;3.142;2023-09-30T02:57:22;12.70;99.90
18229;DHT22;9239;50.932;3.142;2023-09-30T02:59:50;12.70;99.90
18229;DHT22;9239;50.932;3.142;2023-09-30T03:02:18;12.70;99.90
18229;DHT22;9239;50.932;3.142;2023-09-30T03:04:47;12.70;99.90
18229;DHT22;9239;50.932;3.142;2023-09-30T03:07:18;12.70;99.90
18229;DHT22;9239;50.932;3.142;2023-09-30T03:09:45;12.70;99.90
18229;DHT22;9239;50.932;3.142;2023-09-30T03:12:12;12.70;99.90
18229;DHT22;9239;50.932;3.142;2023-09-30T03:14:40;12.60;99.90
18229;DHT22;9239;50.932;3.142;2023-09-30T03:17:08;12.60;99.90
18229;DHT22;9239;50.932;3.142;2023-09-30T03:19:37;12.50;99.90
18229;DHT22;9239;50.932;3.142;2023-09-30T03:22:05;12.50;99.90
18229;DHT22;9239;50.932;3.142;2023-09-30T03:24:38;12.50;99.90
18229;DHT22;9239;50.932;3.142;2023-09-30T03:27:05;12.50;99.90
18229;DHT22;9239;50.932;3.142;2023-09-30T03:29:35;12.40;99.90
18229;DHT22;9239;50.932;3.142;2023-09-30T03:32:03;12.50;99.90
18229;DHT22;9239;50.932;3.142;2023-09-30T03:34:30;12.50;99.90
18229;DHT22;9239;50.932;3.142;2023-09-30T03:36:57;12.50;99.90
18229;DHT22;9239;50.932;3.142;2023-09-30T03:39:25;12.40;99.90
18229;DHT22;9239;50.932;3.142;2023-09-30T03:41:54;12.40;99.90
18229;DHT22;9239;50.932;3.142;2023-09-30T03:44:21;12.40;99.90
18229;DHT22;9239;50.932;3.142;2023-09-30T03:46:51;12.40;99.90
18229;DHT22;9239;50.932;3.142;2023-09-30T03:49:19;12.40;99.90
18229;DHT22;9239;50.932;3.142;2023-09-30T03:51:46;12.30;99.90
18229;DHT22;9239;50.932;3.142;2023-09-30T03:54:16;12.30;99.90
18229;DHT22;9239;50.932;3.142;2023-09-30T03:56:44;12.30;99.90
18229;DHT22;9239;50.932;3.142;2023-09-30T03:59:13;12.30;99.90
18229;DHT22;9239;50.932;3.142;2023-09-30T04:01:41;12.30;99.90
18229;DHT22;9239;50.932;3.142;2023-09-30T04:04:09;12.30;99.90
18229;DHT22;9239;50.932;3.142;2023-09-30T04:06:38;12.30;99.90
18229;DHT22;9239;50.932;3.142;2023-09-30T04:09:05;12.30;99.90
18229;DHT22;9239;50.932;3.142;2023-09-30T04:11:36;12.30;99.90
18229;DHT22;9239;50.932;3.142;2023-09-30T04:14:05;12.20;99.90
18229;DHT22;9239;50.932;3.142;2023-09-30T04:16:34;12.20;99.90
18229;DHT22;9239;50.932;3.142;2023-09-30T04:19:01;12.20;99.90
18229;DHT22;9239;50.932;3.142;2023-09-30T04:21:28;12.30;99.90
18229;DHT22;9239;50.932;3.142;2023-09-30T04:23:59;12.30;99.90
18229;DHT22;9239;50.932;3.142;2023-09-30T04:26:27;12.30;99.90
18229;DHT22;9239;50.932;3.142;2023-09-30T04:28:54;12.30;99.90
18229;DHT22;9239;50.932;3.142;2023-09-30T04:31:22;12.30;99.90
18229;DHT22;9239;50.932;3.142;2023-09-30T04:33:50;12.30;99.90
18229;DHT22;9239;50.932;3.142;2023-09-30T04:36:18;12.20;99.90
18229;DHT22;9239;50.932;3.142;2023-09-30T04:38:46;12.20;99.90
18229;DHT22;9239;50.932;3.142;2023-09-30T04:41:12;12.20;99.90
18229;DHT22;9239;50.932;3.142;2023-09-30T04:43:41;12.20;99.90
18229;DHT22;9239;50.932;3.142;2023-09-30T04:46:09;12.20;99.90
18229;DHT22;9239;50.932;3.142;2023-09-30T04:48:38;12.10;99.90
18229;DHT22;9239;50.932;3.142;2023-09-30T04:51:08;12.10;99.90
18229;DHT22;9239;50.932;3.142;2023-09-30T04:53:37;12.10;99.90
18229;DHT22;9239;50.932;3.142;2023-09-30T04:56:05;12.10;99.90
18229;DHT22;9239;50.932;3.142;2023-09-30T04:58:32;12.10;99.90
18229;DHT22;9239;50.932;3.142;2023-09-30T05:00:59;12.10;99.90
18229;DHT22;9239;50.932;3.142;2023-09-30T05:03:26;12.10;99.90
18229;DHT22;9239;50.932;3.142;2023-09-30T05:05:53;12.10;99.90
18229;DHT22;9239;50.932;3.142;2023-09-30T05:08:23;12.10;99.90
18229;DHT22;9239;50.932;3.142;2023-09-30T05:10:50;12.00;99.90
18229;DHT22;9239;50.932;3.142;2023-09-30T05:13:17;12.10;99.90
18229;DHT22;9239;50.932;3.142;2023-09-30T05:15:44;12.10;99.90
18229;DHT22;9239;50.932;3.142;2023-09-30T05:18:12;12.10;99.90
18229;DHT22;9239;50.932;3.142;2023-09-30T05:20:39;12.10;99.90
18229;DHT22;9239;50.932;3.142;2023-09-30T05:23:06;12.10;99.90
18229;DHT22;9239;50.932;3.142;2023-09-30T05:25:35;12.10;99.90
18229;DHT22;9239;50.932;3.142;2023-09-30T05:28:03;12.10;99.90
18229;DHT22;9239;50.932;3.142;2023-09-30T05:30:31;12.10;99.90
18229;DHT22;9239;50.932;3.142;2023-09-30T05:32:58;12.10;99.90
18229;DHT22;9239;50.932;3.142;2023-09-30T05:35:26;12.10;99.90
18229;DHT22;9239;50.932;3.142;2023-09-30T05:37:54;12.10;99.90
18229;DHT22;9239;50.932;3.142;2023-09-30T05:40:21;12.20;99.90
18229;DHT22;9239;50.932;3.142;2023-09-30T05:42:52;12.10;99.90
18229;DHT22;9239;50.932;3.142;2023-09-30T05:45:19;12.10;99.90
18229;DHT22;9239;50.932;3.142;2023-09-30T05:47:46;12.10;99.90
18229;DHT22;9239;50.932;3.142;2023-09-30T05:50:14;12.10;99.90
18229;DHT22;9239;50.932;3.142;2023-09-30T05:52:41;12.10;99.90
18229;DHT22;9239;50.932;3.142;2023-09-30T05:55:09;12.10;99.90
18229;DHT22;9239;50.932;3.142;2023-09-30T05:57:36;12.10;99.90
18229;DHT22;9239;50.932;3.142;2023-09-30T06:00:06;12.10;99.90
18229;DHT22;9239;50.932;3.142;2023-09-30T06:02:46;12.10;99.90
18229;DHT22;9239;50.932;3.142;2023-09-30T06:05:14;12.10;99.90
18229;DHT22;9239;50.932;3.142;2023-09-30T06:07:44;12.10;99.90
18229;DHT22;9239;50.932;3.142;2023-09-30T06:10:11;12.10;99.90
18229;DHT22;9239;50.932;3.142;2023-09-30T06:12:44;12.10;99.90
18229;DHT22;9239;50.932;3.142;2023-09-30T06:15:13;12.20;99.90
18229;DHT22;9239;50.932;3.142;2023-09-30T06:17:41;12.20;99.90
18229;DHT22;9239;50.932;3.142;2023-09-30T06:20:09;12.20;99.90
18229;DHT22;9239;50.932;3.142;2023-09-30T06:22:42;12.30;99.90
18229;DHT22;9239;50.932;3.142;2023-09-30T06:25:11;12.30;99.90
18229;DHT22;9239;50.932;3.142;2023-09-30T06:27:42;12.30;99.90
18229;DHT22;9239;50.932;3.142;2023-09-30T06:30:10;12.30;99.90
18229;DHT22;9239;50.932;3.142;2023-09-30T06:32:38;12.30;99.90
18229;DHT22;9239;50.932;3.142;2023-09-30T06:35:07;12.40;99.90
18229;DHT22;9239;50.932;3.142;2023-09-30T06:37:36;12.40;99.90
18229;DHT22;9239;50.932;3.142;2023-09-30T06:40:04;12.40;99.90
18229;DHT22;9239;50.932;3.142;2023-09-30T06:42:33;12.40;99.90
18229;DHT22;9239;50.932;3.142;2023-09-30T06:45:01;12.40;99.90
18229;DHT22;9239;50.932;3.142;2023-09-30T06:47:31;12.40;99.90
18229;DHT22;9239;50.932;3.142;2023-09-30T06:50:00;12.40;99.90
18229;DHT22;9239;50.932;3.142;2023-09-30T06:52:33;12.40;99.90
18229;DHT22;9239;50.932;3.142;2023-09-30T06:55:00;12.40;99.90
18229;DHT22;9239;50.932;3.142;2023-09-30T06:57:30;12.40;99.90
18229;DHT22;9239;50.932;3.142;2023-09-30T06:59:57;12.40;99.90
18229;DHT22;9239;50.932;3.142;2023-09-30T07:02:25;12.50;99.90
18229;DHT22;9239;50.932;3.142;2023-09-30T07:04:52;12.50;99.90
18229;DHT22;9239;50.932;3.142;2023-09-30T07:07:20;12.60;99.90
18229;DHT22;9239;50.932;3.142;2023-09-30T07:09:48;12.60;99.90
18229;DHT22;9239;50.932;3.142;2023-09-30T07:12:15;12.60;99.90
18229;DHT22;9239;50.932;3.142;2023-09-30T07:14:42;12.60;99.90
18229;DHT22;9239;50.932;3.142;2023-09-30T07:17:09;12.60;99.90
18229;DHT22;9239;50.932;3.142;2023-09-30T07:19:36;12.60;99.90
18229;DHT22;9239;50.932;3.142;2023-09-30T07:22:03;12.70;99.90
18229;DHT22;9239;50.932;3.142;2023-09-30T07:24:32;12.70;99.90
18229;DHT22;9239;50.932;3.142;2023-09-30T07:26:59;12.80;99.90
18229;DHT22;9239;50.932;3.142;2023-09-30T07:29:26;12.90;99.90
18229;DHT22;9239;50.932;3.142;2023-09-30T07:31:53;13.00;99.90
18229;DHT22;9239;50.932;3.142;2023-09-30T07:34:20;13.10;99.90
18229;DHT22;9239;50.932;3.142;2023-09-30T07:36:47;13.20;99.90
18229;DHT22;9239;50.932;3.142;2023-09-30T07:39:17;13.30;99.90
18229;DHT22;9239;50.932;3.142;2023-09-30T07:41:45;13.40;99.90
18229;DHT22;9239;50.932;3.142;2023-09-30T07:44:12;13.50;99.90
18229;DHT22;9239;50.932;3.142;2023-09-30T07:46:40;13.50;99.90
18229;DHT22;9239;50.932;3.142;2023-09-30T07:49:08;13.50;99.90
18229;DHT22;9239;50.932;3.142;2023-09-30T07:51:35;13.70;99.90
18229;DHT22;9239;50.932;3.142;2023-09-30T07:54:05;13.80;99.90
18229;DHT22;9239;50.932;3.142;2023-09-30T07:56:32;13.90;99.90
18229;DHT22;9239;50.932;3.142;2023-09-30T07:59:01;13.90;99.90
18229;DHT22;9239;50.932;3.142;2023-09-30T08:01:28;14.00;99.90
18229;DHT22;9239;50.932;3.142;2023-09-30T08:03:55;14.10;99.90
18229;DHT22;9239;50.932;3.142;2023-09-30T08:06:22;14.10;99.90
18229;DHT22;9239;50.932;3.142;2023-09-30T08:08:50;14.20;99.90
18229;DHT22;9239;50.932;3.142;2023-09-30T08:11:18;14.30;99.90
18229;DHT22;9239;50.932;3.142;2023-09-30T08:13:46;14.40;99.90
18229;DHT22;9239;50.932;3.142;2023-09-30T08:16:14;14.50;99.90
18229;DHT22;9239;50.932;3.142;2023-09-30T08:18:41;14.60;99.90
18229;DHT22;9239;50.932;3.142;2023-09-30T08:21:09;14.60;99.90
18229;DHT22;9239;50.932;3.142;2023-09-30T08:23:37;14.70;99.90
18229;DHT22;9239;50.932;3.142;2023-09-30T08:26:04;14.80;99.90
18229;DHT22;9239;50.932;3.142;2023-09-30T08:28:31;14.80;99.90
18229;DHT22;9239;50.932;3.142;2023-09-30T08:31:02;14.90;99.90
18229;DHT22;9239;50.932;3.142;2023-09-30T08:33:31;15.00;99.90
18229;DHT22;9239;50.932;3.142;2023-09-30T08:36:02;15.00;99.90
18229;DHT22;9239;50.932;3.142;2023-09-30T08:38:33;15.10;99.90
18229;DHT22;9239;50.932;3.142;2023-09-30T08:41:01;15.20;99.90
18229;DHT22;9239;50.932;3.142;2023-09-30T08:43:29;15.30;99.90
18229;DHT22;9239;50.932;3.142;2023-09-30T08:45:58;15.40;99.90
18229;DHT22;9239;50.932;3.142;2023-09-30T08:48:26;15.40;99.90
18229;DHT22;9239;50.932;3.142;2023-09-30T08:50:55;15.50;99.90
18229;DHT22;9239;50.932;3.142;2023-09-30T08:53:23;15.60;99.90
18229;DHT22;9239;50.932;3.142;2023-09-30T08:55:53;15.70;99.90
18229;DHT22;9239;50.932;3.142;2023-09-30T08:58:23;15.80;99.90
18229;DHT22;9239;50.932;3.142;2023-09-30T09:00:51;15.90;99.90
18229;DHT22;9239;50.932;3.142;2023-09-30T09:03:19;15.90;99.90
18229;DHT22;9239;50.932;3.142;2023-09-30T09:05:46;16.00;99.90
18229;DHT22;9239;50.932;3.142;2023-09-30T09:08:15;16.10;99.90
18229;DHT22;9239;50.932;3.142;2023-09-30T09:11:02;16.20;99.90
18229;DHT22;9239;50.932;3.142;2023-09-30T09:13:46;16.30;99.90
18229;DHT22;9239;50.932;3.142;2023-09-30T09:16:16;16.40;99.90
18229;DHT22;9239;50.932;3.142;2023-09-30T09:18:44;16.50;99.90
18229;DHT22;9239;50.932;3.142;2023-09-30T09:21:14;16.50;99.90
18229;DHT22;9239;50.932;3.142;2023-09-30T09:23:44;16.50;99.90
18229;DHT22;9239;50.932;3.142;2023-09-30T09:26:12;16.70;99.90
18229;DHT22;9239;50.932;3.142;2023-09-30T09:28:39;16.80;99.90
18229;DHT22;9239;50.932;3.142;2023-09-30T09:31:21;16.80;99.90
18229;DHT22;9239;50.932;3.142;2023-09-30T09:33:51;16.80;99.90
18229;DHT22;9239;50.932;3.142;2023-09-30T09:36:19;17.00;99.90
18229;DHT22;9239;50.932;3.142;2023-09-30T09:38:49;17.00;99.90
18229;DHT22;9239;50.932;3.142;2023-09-30T09:41:19;17.10;99.90
18229;DHT22;9239;50.932;3.142;2023-09-30T09:43:48;17.30;99.90
18229;DHT22;9239;50.932;3.142;2023-09-30T09:46:17;17.30;99.90
18229;DHT22;9239;50.932;3.142;2023-09-30T09:48:45;17.40;99.90
18229;DHT22;9239;50.932;3.142;2023-09-30T09:51:13;17.50;99.90
18229;DHT22;9239;50.932;3.142;2023-09-30T09:53:41;17.50;99.90
18229;DHT22;9239;50.932;3.142;2023-09-30T09:56:10;17.60;99.90
18229;DHT22;9239;50.932;3.142;2023-09-30T09:58:40;17.70;99.90
18229;DHT22;9239;50.932;3.142;2023-09-30T10:01:09;17.80;99.90
18229;DHT22;9239;50.932;3.142;2023-09-30T10:03:38;17.80;99.90
18229;DHT22;9239;50.932;3.142;2023-09-30T10:06:05;17.90;99.90
18229;DHT22;9239;50.932;3.142;2023-09-30T10:08:38;17.80;99.90
18229;DHT22;9239;50.932;3.142;2023-09-30T10:11:09;17.90;99.90
18229;DHT22;9239;50.932;3.142;2023-09-30T10:13:53;17.90;99.90
18229;DHT22;9239;50.932;3.142;2023-09-30T10:16:48;17.90;99.90
18229;DHT22;9239;50.932;3.142;2023-09-30T10:19:18;17.90;99.90
18229;DHT22;9239;50.932;3.142;2023-09-30T10:25:01;18.20;99.90
18229;DHT22;9239;50.932;3.142;2023-09-30T10:27:49;18.30;99.90
18229;DHT22;9239;50.932;3.142;2023-09-30T10:30:16;18.30;99.90
18229;DHT22;9239;50.932;3.142;2023-09-30T10:33:08;18.40;99.90
18229;DHT22;9239;50.932;3.142;2023-09-30T10:35:46;18.50;99.90
18229;DHT22;9239;50.932;3.142;2023-09-30T10:38:38;18.50;99.90
18229;DHT22;9239;50.932;3.142;2023-09-30T10:41:10;18.50;99.90
18229;DHT22;9239;50.932;3.142;2023-09-30T10:43:40;18.40;99.90
18229;DHT22;9239;50.932;3.142;2023-09-30T10:46:29;18.40;99.90
18229;DHT22;9239;50.932;3.142;2023-09-30T10:48:57;18.40;99.90
18229;DHT22;9239;50.932;3.142;2023-09-30T10:51:42;18.50;99.90
18229;DHT22;9239;50.932;3.142;2023-09-30T10:54:10;18.60;99.90
18229;DHT22;9239;50.932;3.142;2023-09-30T10:56:39;18.60;99.90
18229;DHT22;9239;50.932;3.142;2023-09-30T10:59:07;18.60;99.90
18229;DHT22;9239;50.932;3.142;2023-09-30T11:01:35;18.60;99.90
18229;DHT22;9239;50.932;3.142;2023-09-30T11:04:03;18.60;99.90
18229;DHT22;9239;50.932;3.142;2023-09-30T11:06:32;18.60;99.90
18229;DHT22;9239;50.932;3.142;2023-09-30T11:09:00;18.60;99.90
18229;DHT22;9239;50.932;3.142;2023-09-30T11:11:38;18.70;99.90
18229;DHT22;9239;50.932;3.142;2023-09-30T11:14:20;18.70;99.90
18229;DHT22;9239;50.932;3.142;2023-09-30T11:16:48;18.80;99.90
18229;DHT22;9239;50.932;3.142;2023-09-30T11:19:16;18.90;99.90
18229;DHT22;9239;50.932;3.142;2023-09-30T11:21:43;18.90;99.90
18229;DHT22;9239;50.932;3.142;2023-09-30T11:24:10;19.00;99.90
18229;DHT22;9239;50.932;3.142;2023-09-30T11:26:38;19.10;99.90
18229;DHT22;9239;50.932;3.142;2023-09-30T11:29:08;19.10;99.90
18229;DHT22;9239;50.932;3.142;2023-09-30T11:31:38;19.10;99.90
18229;DHT22;9239;50.932;3.142;2023-09-30T11:34:05;19.00;99.90
18229;DHT22;9239;50.932;3.142;2023-09-30T11:36:34;19.10;99.90
18229;DHT22;9239;50.932;3.142;2023-09-30T11:39:02;19.30;99.90
18229;DHT22;9239;50.932;3.142;2023-09-30T11:41:33;19.30;99.90
18229;DHT22;9239;50.932;3.142;2023-09-30T11:44:02;19.40;99.90
18229;DHT22;9239;50.932;3.142;2023-09-30T11:46:47;19.30;99.90
18229;DHT22;9239;50.932;3.142;2023-09-30T11:49:24;19.40;99.90
18229;DHT22;9239;50.932;3.142;2023-09-30T11:51:52;19.40;99.90
18229;DHT22;9239;50.932;3.142;2023-09-30T11:54:19;19.50;99.90
18229;DHT22;9239;50.932;3.142;2023-09-30T11:56:47;19.60;99.90
18229;DHT22;9239;50.932;3.142;2023-09-30T11:59:16;19.60;99.90
18229;DHT22;9239;50.932;3.142;2023-09-30T12:01:46;19.70;99.90
18229;DHT22;9239;50.932;3.142;2023-09-30T12:04:14;19.60;99.90
18229;DHT22;9239;50.932;3.142;2023-09-30T12:06:43;19.70;99.90
18229;DHT22;9239;50.932;3.142;2023-09-30T12:09:10;19.80;99.90
18229;DHT22;9239;50.932;3.142;2023-09-30T12:11:40;19.90;99.90
18229;DHT22;9239;50.932;3.142;2023-09-30T12:14:10;20.10;99.90
18229;DHT22;9239;50.932;3.142;2023-09-30T12:16:38;20.10;99.90
18229;DHT22;9239;50.932;3.142;2023-09-30T12:19:06;20.10;99.90
18229;DHT22;9239;50.932;3.142;2023-09-30T12:21:34;20.00;99.90
18229;DHT22;9239;50.932;3.142;2023-09-30T12:24:02;20.00;99.90
18229;DHT22;9239;50.932;3.142;2023-09-30T12:26:30;20.10;99.90
18229;DHT22;9239;50.932;3.142;2023-09-30T12:28:57;20.10;99.90
18229;DHT22;9239;50.932;3.142;2023-09-30T12:31:24;20.00;99.90
18229;DHT22;9239;50.932;3.142;2023-09-30T12:33:51;20.00;99.90
18229;DHT22;9239;50.932;3.142;2023-09-30T12:36:22;20.00;99.90
18229;DHT22;9239;50.932;3.142;2023-09-30T12:38:50;19.90;99.90
18229;DHT22;9239;50.932;3.142;2023-09-30T12:41:17;19.80;99.90
18229;DHT22;9239;50.932;3.142;2023-09-30T12:43:45;19.80;99.90
18229;DHT22;9239;50.932;3.142;2023-09-30T12:46:12;19.90;99.90
18229;DHT22;9239;50.932;3.142;2023-09-30T12:48:39;20.00;99.90
18229;DHT22;9239;50.932;3.142;2023-09-30T12:51:06;20.10;99.90
18229;DHT22;9239;50.932;3.142;2023-09-30T12:53:36;20.30;99.90
18229;DHT22;9239;50.932;3.142;2023-09-30T12:56:03;20.40;99.90
18229;DHT22;9239;50.932;3.142;2023-09-30T12:58:30;20.60;99.90
18229;DHT22;9239;50.932;3.142;2023-09-30T13:00:58;20.60;99.90
18229;DHT22;9239;50.932;3.142;2023-09-30T13:03:25;20.60;99.90
18229;DHT22;9239;50.932;3.142;2023-09-30T13:05:52;20.50;99.90
18229;DHT22;9239;50.932;3.142;2023-09-30T13:08:20;20.40;99.90
18229;DHT22;9239;50.932;3.142;2023-09-30T13:10:48;20.20;99.90
18229;DHT22;9239;50.932;3.142;2023-09-30T13:13:16;20.00;99.90
18229;DHT22;9239;50.932;3.142;2023-09-30T13:15:43;20.00;99.90
18229;DHT22;9239;50.932;3.142;2023-09-30T13:18:10;20.00;99.90
18229;DHT22;9239;50.932;3.142;2023-09-30T13:20:37;19.90;99.90
18229;DHT22;9239;50.932;3.142;2023-09-30T13:23:04;19.90;99.90
18229;DHT22;9239;50.932;3.142;2023-09-30T13:25:31;19.90;99.90
18229;DHT22;9239;50.932;3.142;2023-09-30T13:28:01;19.90;99.90
18229;DHT22;9239;50.932;3.142;2023-09-30T13:30:28;20.00;99.90
18229;DHT22;9239;50.932;3.142;2023-09-30T13:32:55;20.10;99.90
18229;DHT22;9239;50.932;3.142;2023-09-30T13:35:22;20.20;99.90
18229;DHT22;9239;50.932;3.142;2023-09-30T13:37:50;20.20;99.90
18229;DHT22;9239;50.932;3.142;2023-09-30T13:40:17;20.30;99.90
18229;DHT22;9239;50.932;3.142;2023-09-30T13:42:44;20.30;99.90
18229;DHT22;9239;50.932;3.142;2023-09-30T13:45:14;20.40;99.90
18229;DHT22;9239;50.932;3.142;2023-09-30T13:47:43;20.50;99.90
18229;DHT22;9239;50.932;3.142;2023-09-30T13:50:09;20.40;99.90
18229;DHT22;9239;50.932;3.142;2023-09-30T13:52:37;20.50;99.90
18229;DHT22;9239;50.932;3.142;2023-09-30T13:55:05;20.50;99.90
18229;DHT22;9239;50.932;3.142;2023-09-30T13:57:32;20.60;99.90
18229;DHT22;9239;50.932;3.142;2023-09-30T13:59:59;20.50;99.90
18229;DHT22;9239;50.932;3.142;2023-09-30T14:02:27;20.50;99.90
18229;DHT22;9239;50.932;3.142;2023-09-30T14:04:54;20.40;99.90
18229;DHT22;9239;50.932;3.142;2023-09-30T14:07:21;20.40;99.90
18229;DHT22;9239;50.932;3.142;2023-09-30T14:09:48;20.40;99.90
18229;DHT22;9239;50.932;3.142;2023-09-30T14:12:17;20.60;99.90
18229;DHT22;9239;50.932;3.142;2023-09-30T14:14:44;20.60;99.90
18229;DHT22;9239;50.932;3.142;2023-09-30T14:17:11;20.60;99.90
18229;DHT22;9239;50.932;3.142;2023-09-30T14:19:41;20.60;99.90
18229;DHT22;9239;50.932;3.142;2023-09-30T14:22:08;20.60;99.90
18229;DHT22;9239;50.932;3.142;2023-09-30T14:24:36;20.60;99.90
18229;DHT22;9239;50.932;3.142;2023-09-30T14:27:03;20.60;99.90
18229;DHT22;9239;50.932;3.142;2023-09-30T14:29:30;20.60;99.90
18229;DHT22;9239;50.932;3.142;2023-09-30T14:31:57;20.60;99.90
18229;DHT22;9239;50.932;3.142;2023-09-30T14:34:25;20.60;99.90
18229;DHT22;9239;50.932;3.142;2023-09-30T14:36:53;20.50;99.90
18229;DHT22;9239;50.932;3.142;2023-09-30T14:39:20;20.60;99.90
18229;DHT22;9239;50.932;3.142;2023-09-30T14:41:48;20.60;99.90
18229;DHT22;9239;50.932;3.142;2023-09-30T14:44:15;20.60;99.90
18229;DHT22;9239;50.932;3.142;2023-09-30T14:46:42;20.60;99.90
18229;DHT22;9239;50.932;3.142;2023-09-30T14:49:10;20.60;99.90
18229;DHT22;9239;50.932;3.142;2023-09-30T14:51:37;20.70;99.90
18229;DHT22;9239;50.932;3.142;2023-09-30T14:54:06;20.60;99.90
18229;DHT22;9239;50.932;3.142;2023-09-30T14:56:33;20.60;99.90
18229;DHT22;9239;50.932;3.142;2023-09-30T14:59:00;20.60;99.90
18229;DHT22;9239;50.932;3.142;2023-09-30T15:01:28;20.60;99.90
18229;DHT22;9239;50.932;3.142;2023-09-30T15:03:55;20.60;99.90
18229;DHT22;9239;50.932;3.142;2023-09-30T15:06:24;20.60;99.90
18229;DHT22;9239;50.932;3.142;2023-09-30T15:08:51;20.60;99.90
18229;DHT22;9239;50.932;3.142;2023-09-30T15:11:20;20.50;99.90
18229;DHT22;9239;50.932;3.142;2023-09-30T15:13:49;20.50;99.90
18229;DHT22;9239;50.932;3.142;2023-09-30T15:16:17;20.40;99.90
18229;DHT22;9239;50.932;3.142;2023-09-30T15:18:45;20.40;99.90
18229;DHT22;9239;50.932;3.142;2023-09-30T15:21:13;20.40;99.90
18229;DHT22;9239;50.932;3.142;2023-09-30T15:23:40;20.40;99.90
18229;DHT22;9239;50.932;3.142;2023-09-30T15:26:08;20.40;99.90
18229;DHT22;9239;50.932;3.142;2023-09-30T15:28:37;20.40;99.90
18229;DHT22;9239;50.932;3.142;2023-09-30T15:31:04;20.40;99.90
18229;DHT22;9239;50.932;3.142;2023-09-30T15:33:32;20.40;99.90
18229;DHT22;9239;50.932;3.142;2023-09-30T15:35:59;20.30;99.90
18229;DHT22;9239;50.932;3.142;2023-09-30T15:38:26;20.40;99.90
18229;DHT22;9239;50.932;3.142;2023-09-30T15:40:54;20.40;99.90
18229;DHT22;9239;50.932;3.142;2023-09-30T15:43:23;20.40;99.90
18229;DHT22;9239;50.932;3.142;2023-09-30T15:45:52;20.30;99.90
18229;DHT22;9239;50.932;3.142;2023-09-30T15:48:20;20.30;99.90
18229;DHT22;9239;50.932;3.142;2023-09-30T15:50:47;20.30;99.90
18229;DHT22;9239;50.932;3.142;2023-09-30T15:53:14;20.20;99.90
18229;DHT22;9239;50.932;3.142;2023-09-30T15:55:42;20.30;99.90